Time;durP1;ratioP1;P1;durP2;ratioP2;P2;SDS_P1;SDS_P2;PMS_P1;PMS_P2;Temp;Humidity;BMP_temperature;BMP_pressure;BME280_temperature;BME280_humidity;BME280_pressure;Samples;Min_cycle;Max_cycle;Signal;HPM_P1;HPM_P2
2021/10/14 00:00:09;;;;;;;8.73;3.83;;;;;;;1.65;100.00;97652.22;4982836;28;20492;-63
2021/10/14 00:02:35;;;;;;;8.73;3.38;;;;;;;1.93;100.00;97658.69;4992398;28;20088;-62
2021/10/14 00:05:00;;;;;;;6.00;3.33;;;;;;;1.94;100.00;97657.56;4986317;28;20456;-62
2021/10/14 00:07:26;;;;;;;6.80;3.70;;;;;;;1.76;100.00;97669.91;4986083;28;20391;-62
2021/10/14 00:09:51;;;;;;;9.88;4.18;;;;;;;1.51;100.00;97670.97;4997412;28;20121;-60
2021/10/14 00:12:17;;;;;;;8.30;4.28;;;;;;;1.29;100.00;97668.72;4995824;28;20133;-60
2021/10/14 00:14:42;;;;;;;8.00;4.40;;;;;;;0.91;100.00;97674.66;4997334;28;20053;-62
2021/10/14 00:17:08;;;;;;;7.72;4.13;;;;;;;0.86;100.00;97669.28;4997924;28;20100;-60
2021/10/14 00:19:34;;;;;;;8.40;4.75;;;;;;;0.81;100.00;97666.66;4980920;28;20084;-61
2021/10/14 00:21:59;;;;;;;9.40;5.03;;;;;;;0.78;100.00;97658.31;4977656;28;20087;-60
2021/10/14 00:24:24;;;;;;;8.30;5.35;;;;;;;0.84;100.00;97660.69;4993741;28;20073;-58
2021/10/14 00:26:50;;;;;;;7.68;4.88;;;;;;;1.21;100.00;97662.03;5003620;28;20076;-59
2021/10/14 00:29:15;;;;;;;8.25;4.80;;;;;;;1.40;100.00;97662.16;5003502;28;20048;-61
2021/10/14 00:31:40;;;;;;;7.97;4.70;;;;;;;1.56;100.00;97662.81;5015933;28;20045;-63
2021/10/14 00:34:06;;;;;;;10.43;4.70;;;;;;;1.62;100.00;97658.16;5019736;28;20041;-62
2021/10/14 00:36:31;;;;;;;8.05;4.03;;;;;;;1.63;100.00;97647.09;5015187;28;20089;-62
2021/10/14 00:38:57;;;;;;;9.68;4.10;;;;;;;1.62;100.00;97650.91;5016137;28;20050;-62
2021/10/14 00:41:22;;;;;;;5.93;4.00;;;;;;;1.74;100.00;97641.59;5020270;28;20053;-62
2021/10/14 00:43:48;;;;;;;6.28;3.85;;;;;;;1.72;100.00;97650.78;4999577;28;20446;-64
2021/10/14 00:46:15;;;;;;;7.93;4.18;;;;;;;1.77;100.00;97641.03;5001348;28;20049;-62
2021/10/14 00:48:40;;;;;;;7.78;3.95;;;;;;;1.42;100.00;97643.75;5005830;28;20034;-61
2021/10/14 00:51:06;;;;;;;5.78;3.83;;;;;;;1.19;100.00;97642.63;4998330;28;20060;-59
2021/10/14 00:53:31;;;;;;;5.93;3.65;;;;;;;1.06;100.00;97644.09;5012685;28;20065;-60
2021/10/14 00:55:56;;;;;;;8.82;3.80;;;;;;;1.15;100.00;97641.56;4995589;28;20483;-61
2021/10/14 00:58:22;;;;;;;6.05;3.78;;;;;;;1.15;100.00;97644.28;4992008;28;20405;-63
2021/10/14 01:00:47;;;;;;;7.63;4.20;;;;;;;1.22;100.00;97642.06;4994544;28;20046;-62
2021/10/14 01:03:13;;;;;;;4.90;3.42;;;;;;;1.31;100.00;97647.66;5012128;28;20049;-59
2021/10/14 01:05:38;;;;;;;6.55;3.63;;;;;;;1.44;100.00;97648.88;4994765;28;20062;-62
2021/10/14 01:08:04;;;;;;;8.02;3.80;;;;;;;1.50;100.00;97647.78;5001920;28;20046;-63
2021/10/14 01:10:29;;;;;;;8.43;4.40;;;;;;;1.50;100.00;97648.56;4992802;28;20045;-60
2021/10/14 01:12:55;;;;;;;5.03;3.30;;;;;;;1.51;100.00;97641.25;4997556;28;20042;-58
2021/10/14 01:15:26;;;;;;;7.70;3.40;;;;;;;1.51;100.00;97654.75;4972848;28;20133;-64
2021/10/14 01:17:54;;;;;;;5.10;3.47;;;;;;;1.59;100.00;97654.16;5008380;28;20356;-62
2021/10/14 01:20:19;;;;;;;4.53;3.38;;;;;;;1.58;100.00;97654.44;4992405;28;20042;-61
2021/10/14 01:22:45;;;;;;;5.72;3.47;;;;;;;1.56;100.00;97657.41;5002389;28;20041;-62
2021/10/14 01:25:10;;;;;;;6.25;3.85;;;;;;;1.48;100.00;97656.16;4977199;28;20405;-63
2021/10/14 01:27:36;;;;;;;5.82;3.25;;;;;;;1.45;100.00;97653.22;5005323;28;20037;-61
2021/10/14 01:30:04;;;;;;;5.70;3.20;;;;;;;1.43;100.00;97644.59;4980067;28;20038;-62
2021/10/14 01:32:29;;;;;;;6.45;3.38;;;;;;;1.47;100.00;97653.72;4992462;28;20033;-62
2021/10/14 01:34:54;;;;;;;4.93;3.20;;;;;;;1.44;100.00;97647.00;4984224;28;20049;-60
2021/10/14 01:37:20;;;;;;;5.70;3.47;;;;;;;1.41;100.00;97639.47;4999559;28;20758;-61
2021/10/14 01:39:45;;;;;;;5.22;3.22;;;;;;;1.40;100.00;97639.75;4982084;28;20168;-61
2021/10/14 01:42:10;;;;;;;7.05;3.67;;;;;;;1.32;100.00;97639.28;4973248;28;20080;-59
2021/10/14 01:44:36;;;;;;;7.85;4.53;;;;;;;1.30;100.00;97635.25;4997500;28;20046;-59
2021/10/14 01:47:03;;;;;;;5.03;3.45;;;;;;;1.27;100.00;97641.22;4996374;28;20096;-62
2021/10/14 01:49:28;;;;;;;6.93;3.92;;;;;;;1.20;100.00;97648.84;4994775;28;20704;-58
2021/10/14 01:51:53;;;;;;;8.40;4.15;;;;;;;1.13;100.00;97644.56;5000106;28;20124;-62
2021/10/14 01:54:19;;;;;;;7.72;3.80;;;;;;;1.05;100.00;97653.25;5002801;28;20049;-62
2021/10/14 01:56:44;;;;;;;5.85;3.42;;;;;;;0.98;100.00;97651.97;4999122;28;20042;-59
2021/10/14 01:59:10;;;;;;;6.55;3.58;;;;;;;1.02;100.00;97658.41;5001436;28;20038;-60
2021/10/14 02:01:35;;;;;;;5.15;3.28;;;;;;;1.07;100.00;97655.69;5001827;28;20129;-59
2021/10/14 02:04:02;;;;;;;5.03;3.20;;;;;;;1.09;100.00;97651.59;5005025;28;20066;-61
2021/10/14 02:06:27;;;;;;;5.15;3.60;;;;;;;0.91;100.00;97654.97;5003024;28;20073;-61
2021/10/14 02:08:53;;;;;;;5.22;3.38;;;;;;;0.67;100.00;97649.47;4992514;28;20089;-60
2021/10/14 02:11:20;;;;;;;7.07;3.83;;;;;;;0.55;100.00;97656.00;4989120;28;20388;-61
2021/10/14 02:13:45;;;;;;;6.75;4.15;;;;;;;0.56;100.00;97654.91;5006891;28;20038;-61
2021/10/14 02:16:11;;;;;;;7.30;3.55;;;;;;;0.44;100.00;97659.03;4993766;28;20484;-60
2021/10/14 02:18:36;;;;;;;8.18;3.85;;;;;;;0.36;100.00;97660.41;4996681;28;20065;-59
2021/10/14 02:21:02;;;;;;;7.38;4.32;;;;;;;0.42;100.00;97667.38;4988166;28;20137;-63
2021/10/14 02:23:28;;;;;;;6.88;4.75;;;;;;;0.69;100.00;97680.47;5005337;28;20095;-61
2021/10/14 02:25:53;;;;;;;4.97;3.47;;;;;;;0.76;100.00;97674.78;5003234;28;20074;-58
2021/10/14 02:28:19;;;;;;;8.90;4.28;;;;;;;0.90;100.00;97673.06;4996545;28;20045;-61
2021/10/14 02:30:44;;;;;;;5.57;3.78;;;;;;;0.94;100.00;97671.41;5007880;28;20130;-60
2021/10/14 02:33:10;;;;;;;7.47;4.00;;;;;;;0.93;100.00;97667.09;5026449;28;20041;-61
2021/10/14 02:35:35;;;;;;;9.48;4.47;;;;;;;0.87;100.00;97676.31;5004054;28;20391;-60
2021/10/14 02:38:01;;;;;;;8.00;3.42;;;;;;;0.79;100.00;97676.88;5010044;28;20080;-61
2021/10/14 02:40:27;;;;;;;7.50;3.78;;;;;;;0.80;100.00;97685.81;4997520;28;20069;-63
2021/10/14 02:42:52;;;;;;;8.25;3.95;;;;;;;0.94;100.00;97679.50;5009376;28;20045;-61
2021/10/14 02:45:18;;;;;;;7.07;3.80;;;;;;;0.98;100.00;97671.66;4999563;28;20466;-61
2021/10/14 02:47:44;;;;;;;6.28;3.92;;;;;;;0.94;100.00;97662.53;4998721;28;20046;-60
2021/10/14 02:50:09;;;;;;;7.90;3.72;;;;;;;0.92;100.00;97667.38;4997624;28;20065;-60
2021/10/14 02:52:35;;;;;;;6.18;3.58;;;;;;;0.95;100.00;97666.81;5011980;28;20037;-62
2021/10/14 02:55:00;;;;;;;7.00;4.18;;;;;;;0.93;100.00;97669.00;5002518;28;20575;-61
2021/10/14 02:57:26;;;;;;;4.97;3.58;;;;;;;0.78;100.00;97661.00;4992510;28;20119;-62
2021/10/14 02:59:51;;;;;;;9.85;3.53;;;;;;;0.82;100.00;97662.06;5007546;28;20129;-60
2021/10/14 03:02:17;;;;;;;5.22;3.47;;;;;;;0.91;100.00;97661.16;5003943;28;20045;-60
2021/10/14 03:04:42;;;;;;;8.07;3.72;;;;;;;1.00;100.00;97653.28;4982439;28;20052;-61
2021/10/14 03:07:08;;;;;;;6.65;3.72;;;;;;;0.86;100.00;97658.50;5002887;28;20050;-60
2021/10/14 03:09:33;;;;;;;6.13;3.97;;;;;;;0.83;100.00;97655.56;5001964;28;20049;-59
2021/10/14 03:11:59;;;;;;;8.52;4.28;;;;;;;0.81;100.00;97658.56;4982956;28;20507;-60
2021/10/14 03:14:24;;;;;;;7.53;3.78;;;;;;;0.88;100.00;97666.31;5002794;28;20065;-60
2021/10/14 03:16:50;;;;;;;5.18;3.38;;;;;;;0.90;100.00;97664.13;5005140;28;20042;-59
2021/10/14 03:19:15;;;;;;;6.53;4.32;;;;;;;0.93;100.00;97663.59;4997233;28;20049;-61
2021/10/14 03:21:41;;;;;;;5.45;3.95;;;;;;;0.59;100.00;97664.31;5002704;28;20564;-62
2021/10/14 03:24:06;;;;;;;6.82;3.72;;;;;;;0.32;100.00;97657.44;4999096;28;20034;-61
2021/10/14 03:26:32;;;;;;;5.50;3.90;;;;;;;0.25;100.00;97665.03;5000507;28;20052;-61
2021/10/14 03:28:57;;;;;;;8.38;4.00;;;;;;;0.41;100.00;97663.06;5022883;28;20049;-64
2021/10/14 03:31:23;;;;;;;6.03;4.22;;;;;;;0.58;100.00;97662.72;5021750;28;20131;-63
2021/10/14 03:33:49;;;;;;;7.60;3.97;;;;;;;0.66;100.00;97661.34;4989500;28;20152;-60
2021/10/14 03:36:14;;;;;;;5.45;3.40;;;;;;;0.73;100.00;97659.13;4994286;28;20057;-60
2021/10/14 03:38:39;;;;;;;8.13;4.00;;;;;;;0.76;100.00;97661.28;5006515;28;20125;-61
2021/10/14 03:41:05;;;;;;;8.32;4.90;;;;;;;0.73;100.00;97653.75;4994207;28;20046;-60
2021/10/14 03:43:31;;;;;;;9.70;4.03;;;;;;;0.76;100.00;97658.59;4996878;28;20038;-60
2021/10/14 03:45:56;;;;;;;6.88;4.22;;;;;;;0.87;100.00;97672.81;4990495;28;20545;-63
2021/10/14 03:48:22;;;;;;;6.78;3.95;;;;;;;0.87;100.00;97668.22;4996243;28;21389;-60
2021/10/14 03:50:47;;;;;;;7.57;4.57;;;;;;;0.87;100.00;97665.53;5006427;28;20049;-60
2021/10/14 03:53:13;;;;;;;9.85;4.65;;;;;;;0.80;100.00;97672.31;4995662;28;20053;-60
2021/10/14 03:55:38;;;;;;;7.97;4.22;;;;;;;0.76;100.00;97667.47;5006416;28;20196;-60
2021/10/14 03:58:04;;;;;;;9.15;4.50;;;;;;;0.75;100.00;97678.53;4994888;28;20042;-63
2021/10/14 04:00:29;;;;;;;10.55;4.22;;;;;;;0.74;100.00;97675.03;5011133;28;20403;-60
2021/10/14 04:02:55;;;;;;;8.40;4.00;;;;;;;0.64;100.00;97668.91;5014530;28;20104;-60
2021/10/14 04:05:20;;;;;;;7.90;4.00;;;;;;;0.52;100.00;97667.34;4995377;28;20050;-60
2021/10/14 04:07:46;;;;;;;6.38;4.28;;;;;;;0.47;100.00;97667.38;5005832;28;20456;-62
2021/10/14 04:10:11;;;;;;;7.43;4.20;;;;;;;0.51;100.00;97671.13;5003023;28;20037;-63
2021/10/14 04:12:37;;;;;;;6.60;4.22;;;;;;;0.55;100.00;97672.16;5005216;28;20056;-60
2021/10/14 04:15:03;;;;;;;11.05;4.40;;;;;;;0.59;100.00;97679.72;5018105;28;20487;-61
2021/10/14 04:17:29;;;;;;;5.63;3.95;;;;;;;0.62;100.00;97679.97;5010958;28;20057;-61
2021/10/14 04:19:55;;;;;;;7.15;4.88;;;;;;;0.62;100.00;97674.56;5004729;28;20034;-62
2021/10/14 04:22:20;;;;;;;6.30;4.28;;;;;;;0.55;100.00;97684.84;5003569;28;20064;-62
2021/10/14 04:24:47;;;;;;;7.03;4.60;;;;;;;0.52;100.00;97682.69;5017789;28;20045;-62
2021/10/14 04:27:16;;;;;;;9.63;4.68;;;;;;;0.44;100.00;97686.00;5014309;28;20473;-63
2021/10/14 04:29:42;;;;;;;8.68;4.43;;;;;;;0.38;100.00;97690.59;5000779;28;20049;-59
2021/10/14 04:32:09;;;;;;;9.65;4.60;;;;;;;0.39;100.00;97692.19;5000185;28;20050;-61
2021/10/14 04:34:35;;;;;;;7.72;4.57;;;;;;;0.31;100.00;97690.09;4996617;28;20718;-60
2021/10/14 04:37:08;;;;;;;7.65;4.68;;;;;;;0.32;100.00;97689.78;4977952;28;20051;-61
2021/10/14 04:39:38;;;;;;;8.48;4.50;;;;;;;0.37;100.00;97689.78;4995700;28;20053;-60
2021/10/14 04:42:05;;;;;;;8.15;4.63;;;;;;;0.43;100.00;97692.44;4995265;28;20460;-62
2021/10/14 04:44:30;;;;;;;7.13;4.63;;;;;;;0.45;100.00;97690.28;5007594;28;20046;-60
2021/10/14 04:46:57;;;;;;;8.68;4.75;;;;;;;0.48;100.00;97693.22;4998896;28;20148;-61
2021/10/14 04:49:22;;;;;;;8.38;4.50;;;;;;;0.44;100.00;97694.06;5007285;28;20982;-61
2021/10/14 04:51:48;;;;;;;8.18;4.90;;;;;;;0.39;100.00;97694.88;5000047;28;20073;-57
2021/10/14 04:54:13;;;;;;;7.63;4.60;;;;;;;0.30;100.00;97701.94;4988936;28;20066;-60
2021/10/14 04:56:39;;;;;;;6.75;4.10;;;;;;;0.33;100.00;97694.09;5001616;28;20580;-59
2021/10/14 04:59:04;;;;;;;11.55;4.97;;;;;;;0.34;100.00;97693.03;4993609;28;20124;-62
2021/10/14 05:01:30;;;;;;;10.52;4.88;;;;;;;0.25;100.00;97689.28;4996216;28;20128;-62
2021/10/14 05:03:55;;;;;;;9.82;4.50;;;;;;;0.15;100.00;97694.72;5005016;28;20103;-64
2021/10/14 05:06:21;;;;;;;7.82;4.50;;;;;;;-0.01;100.00;97692.06;4998902;28;20093;-64
2021/10/14 05:08:46;;;;;;;7.95;4.60;;;;;;;-0.05;100.00;97685.59;5008870;28;20048;-63
2021/10/14 05:11:13;;;;;;;10.13;4.65;;;;;;;-0.04;100.00;97689.09;5007844;28;20072;-62
2021/10/14 05:13:38;;;;;;;8.77;4.65;;;;;;;0.03;100.00;97692.31;4988027;28;20173;-62
2021/10/14 05:16:04;;;;;;;8.70;4.68;;;;;;;0.14;100.00;97687.69;4993837;28;20140;-62
2021/10/14 05:18:30;;;;;;;8.15;4.85;;;;;;;0.41;100.00;97681.13;4997869;28;20481;-63
2021/10/14 05:20:55;;;;;;;8.20;5.13;;;;;;;0.59;100.00;97685.09;5002776;28;20045;-62
2021/10/14 05:23:21;;;;;;;8.65;4.68;;;;;;;0.67;100.00;97674.53;5002391;28;22282;-62
2021/10/14 05:25:46;;;;;;;9.48;4.53;;;;;;;0.48;100.00;97684.34;4999640;28;20465;-63
2021/10/14 05:28:12;;;;;;;6.70;3.97;;;;;;;0.32;100.00;97683.59;4993330;28;20077;-61
2021/10/14 05:30:37;;;;;;;9.65;4.80;;;;;;;0.21;100.00;97684.72;4997690;28;20057;-61
2021/10/14 05:33:03;;;;;;;8.75;4.30;;;;;;;0.30;100.00;97693.84;4998851;28;20030;-62
2021/10/14 05:35:29;;;;;;;6.20;4.22;;;;;;;0.15;100.00;97697.41;4998978;28;20046;-61
2021/10/14 05:37:54;;;;;;;7.00;4.45;;;;;;;0.41;100.00;97694.63;4997205;28;20042;-58
2021/10/14 05:40:19;;;;;;;7.80;5.47;;;;;;;0.39;100.00;97694.88;4996146;28;20454;-63
2021/10/14 05:42:45;;;;;;;9.50;5.25;;;;;;;0.41;100.00;97694.63;5016133;28;20086;-63
2021/10/14 05:45:10;;;;;;;16.67;4.53;;;;;;;0.36;100.00;97700.81;4998266;28;20077;-62
2021/10/14 05:47:36;;;;;;;8.38;4.57;;;;;;;0.34;100.00;97700.28;5001413;28;20049;-62
2021/10/14 05:50:03;;;;;;;7.07;4.70;;;;;;;0.40;100.00;97701.91;4995719;28;20502;-65
2021/10/14 05:52:29;;;;;;;8.07;4.38;;;;;;;0.44;100.00;97712.94;5007660;28;20041;-62
2021/10/14 05:54:55;;;;;;;7.88;4.45;;;;;;;0.49;100.00;97711.03;4998546;28;20049;-61
2021/10/14 05:57:21;;;;;;;7.40;4.97;;;;;;;0.54;100.00;97710.19;5003675;28;20413;-60
2021/10/14 05:59:46;;;;;;;10.32;4.78;;;;;;;0.48;100.00;97712.09;5013514;28;20434;-61
2021/10/14 06:02:12;;;;;;;8.25;4.90;;;;;;;0.50;100.00;97715.31;5007597;28;20050;-60
2021/10/14 06:04:37;;;;;;;8.27;4.30;;;;;;;0.60;100.00;97717.19;5002101;28;20061;-61
2021/10/14 06:07:03;;;;;;;7.72;4.65;;;;;;;0.68;100.00;97715.78;4998764;28;20144;-60
2021/10/14 06:09:28;;;;;;;8.52;4.90;;;;;;;0.70;100.00;97722.53;4999313;28;20054;-61
2021/10/14 06:11:54;;;;;;;9.52;4.65;;;;;;;0.76;100.00;97726.81;5006761;28;20045;-63
2021/10/14 06:14:19;;;;;;;9.25;5.07;;;;;;;0.79;100.00;97720.03;4998302;28;20129;-62
2021/10/14 06:16:45;;;;;;;10.07;5.05;;;;;;;0.60;100.00;97725.28;4980316;28;20042;-62
2021/10/14 06:19:10;;;;;;;8.98;6.38;;;;;;;0.54;100.00;97724.47;4997803;28;20487;-61
2021/10/14 06:21:36;;;;;;;8.45;4.80;;;;;;;0.27;100.00;97724.84;5008678;28;20069;-61
2021/10/14 06:24:01;;;;;;;9.07;4.88;;;;;;;0.40;100.00;97736.13;4997813;28;20042;-61
2021/10/14 06:26:26;;;;;;;7.03;4.97;;;;;;;0.83;100.00;97725.69;4995508;28;20454;-61
2021/10/14 06:28:52;;;;;;;9.88;6.10;;;;;;;1.49;100.00;97727.13;5002007;28;20038;-61
2021/10/14 06:31:19;;;;;;;8.57;5.18;;;;;;;2.45;100.00;97724.59;4995343;28;20041;-62
2021/10/14 06:33:44;;;;;;;9.85;5.20;;;;;;;3.52;100.00;97721.47;5001069;28;20435;-61
2021/10/14 06:36:10;;;;;;;9.30;5.18;;;;;;;4.74;93.68;97723.06;5011589;28;20037;-61
2021/10/14 06:38:36;;;;;;;8.70;4.50;;;;;;;5.85;84.27;97705.56;5022977;28;20379;-62
2021/10/14 06:41:02;;;;;;;6.82;4.00;;;;;;;6.81;78.99;97712.25;4999152;28;20053;-59
2021/10/14 06:43:27;;;;;;;9.13;4.57;;;;;;;7.53;72.65;97707.34;4962154;28;20161;-61
2021/10/14 06:45:52;;;;;;;11.77;4.78;;;;;;;7.81;69.93;97707.78;5001398;28;20205;-62
2021/10/14 06:48:18;;;;;;;8.70;4.97;;;;;;;7.65;68.91;97710.22;4997856;28;20053;-62
2021/10/14 06:50:43;;;;;;;7.47;3.97;;;;;;;7.82;69.32;97712.09;5021888;28;20045;-63
2021/10/14 06:53:10;;;;;;;8.98;3.97;;;;;;;7.47;70.54;97717.59;5011373;28;20040;-62
2021/10/14 06:55:36;;;;;;;8.25;5.07;;;;;;;7.73;70.42;97711.31;5001084;28;20418;-63
2021/10/14 06:58:03;;;;;;;8.73;4.38;;;;;;;8.30;68.06;97709.41;5015767;28;20034;-63
2021/10/14 07:00:28;;;;;;;10.35;4.47;;;;;;;8.66;66.24;97711.72;5015368;28;20247;-64
2021/10/14 07:02:54;;;;;;;11.40;5.93;;;;;;;8.84;66.53;97709.69;4981894;28;20066;-63
2021/10/14 07:05:19;;;;;;;9.15;5.90;;;;;;;8.34;67.42;97719.34;5007245;28;20116;-63
2021/10/14 07:07:45;;;;;;;9.45;5.55;;;;;;;7.89;69.41;97713.56;5021621;28;20125;-62
2021/10/14 07:10:10;;;;;;;8.68;4.90;;;;;;;8.13;69.70;97713.00;5013037;28;20049;-62
2021/10/14 07:12:38;;;;;;;9.95;5.25;;;;;;;9.22;66.65;97707.97;4999937;28;20574;-63
2021/10/14 07:15:05;;;;;;;9.63;5.65;;;;;;;9.74;64.35;97713.00;5010393;28;20069;-64
2021/10/14 07:17:31;;;;;;;10.18;5.40;;;;;;;9.99;63.98;97710.34;5005416;28;20041;-63
2021/10/14 07:19:57;;;;;;;8.02;4.93;;;;;;;10.02;61.99;97715.94;5007110;28;20498;-63
2021/10/14 07:22:22;;;;;;;10.00;4.72;;;;;;;11.62;58.08;97718.66;4994362;28;20703;-62
2021/10/14 07:24:48;;;;;;;9.90;4.38;;;;;;;12.72;55.28;97718.41;5001339;28;20050;-62
2021/10/14 07:27:14;;;;;;;7.97;4.30;;;;;;;13.55;52.68;97721.88;4978159;28;20041;-62
2021/10/14 07:29:39;;;;;;;8.65;3.78;;;;;;;13.19;53.46;97721.06;4999728;28;20198;-63
2021/10/14 07:32:06;;;;;;;9.70;3.85;;;;;;;11.26;58.70;97717.63;4973337;28;20048;-60
2021/10/14 07:34:33;;;;;;;9.00;3.80;;;;;;;12.04;57.20;97728.47;5003814;28;20038;-64
2021/10/14 07:36:59;;;;;;;17.30;5.25;;;;;;;10.49;64.38;97720.28;5007968;28;20041;-62
2021/10/14 07:39:24;;;;;;;10.65;5.00;;;;;;;7.91;74.00;97723.00;4994902;28;20855;-61
2021/10/14 07:41:50;;;;;;;10.15;4.18;;;;;;;7.25;79.04;97731.38;4998195;28;20046;-58
2021/10/14 07:44:16;;;;;;;5.78;3.47;;;;;;;6.57;83.74;97730.91;4994667;28;20034;-62
2021/10/14 07:46:44;;;;;;;8.63;4.28;;;;;;;5.45;89.95;97730.72;4999744;28;20479;-61
2021/10/14 07:49:11;;;;;;;8.23;4.43;;;;;;;5.07;93.21;97731.03;5000999;28;20465;-61
2021/10/14 07:51:36;;;;;;;7.43;4.30;;;;;;;4.78;95.88;97739.53;5000236;28;20049;-62
2021/10/14 07:54:03;;;;;;;9.85;5.00;;;;;;;4.97;95.69;97737.50;4982411;28;20045;-62
2021/10/14 07:56:28;;;;;;;10.88;5.82;;;;;;;4.96;95.90;97738.59;4998850;28;20096;-62
2021/10/14 07:58:54;;;;;;;15.02;5.85;;;;;;;4.64;97.94;97739.53;5001219;28;20042;-62
2021/10/14 08:01:20;;;;;;;21.60;7.10;;;;;;;4.88;98.83;97749.38;4993713;28;20038;-62
2021/10/14 08:03:46;;;;;;;10.32;5.38;;;;;;;5.06;97.08;97744.91;4997879;28;20115;-62
2021/10/14 08:06:12;;;;;;;11.13;5.25;;;;;;;5.36;96.91;97749.66;4998144;28;20044;-66
2021/10/14 08:08:37;;;;;;;21.98;7.70;;;;;;;5.71;94.67;97732.84;4996057;28;20042;-62
2021/10/14 08:11:03;;;;;;;20.60;5.50;;;;;;;5.97;93.57;97732.22;4981603;28;20081;-61
2021/10/14 08:13:28;;;;;;;9.32;5.45;;;;;;;5.82;94.85;97736.91;5000398;28;20046;-61
2021/10/14 08:15:54;;;;;;;8.65;5.35;;;;;;;5.67;95.72;97735.38;4996169;28;20069;-62
2021/10/14 08:18:21;;;;;;;12.05;5.63;;;;;;;5.92;95.22;97727.69;5002562;28;20457;-62
2021/10/14 08:20:48;;;;;;;8.82;5.07;;;;;;;6.73;91.37;97725.84;4993184;28;20081;-63
2021/10/14 08:23:13;;;;;;;9.52;5.50;;;;;;;6.63;90.84;97732.38;4993716;28;20165;-59
2021/10/14 08:25:39;;;;;;;8.38;4.80;;;;;;;6.63;89.75;97732.38;4992931;28;20469;-62
2021/10/14 08:28:05;;;;;;;7.53;5.43;;;;;;;6.42;92.59;97732.13;4995347;28;20454;-60
2021/10/14 08:30:30;;;;;;;8.35;5.18;;;;;;;6.32;92.57;97728.56;4995671;28;20053;-62
2021/10/14 08:32:55;;;;;;;9.63;5.32;;;;;;;6.31;95.19;97735.13;5007340;28;20037;-60
2021/10/14 08:35:22;;;;;;;9.48;5.65;;;;;;;6.88;92.07;97737.09;5010903;28;20805;-60
2021/10/14 08:37:48;;;;;;;11.35;6.28;;;;;;;6.53;94.22;97724.50;5021071;28;20048;-61
2021/10/14 08:40:17;;;;;;;9.10;5.15;;;;;;;7.71;89.27;97729.94;5014791;28;20420;-60
2021/10/14 08:42:43;;;;;;;10.77;6.63;;;;;;;8.05;87.52;97731.00;5021587;28;20474;-60
2021/10/14 08:45:11;;;;;;;7.72;5.28;;;;;;;8.98;84.17;97712.97;5002285;28;20571;-61
2021/10/14 08:47:38;;;;;;;6.55;4.72;;;;;;;11.20;71.92;97712.72;5006229;28;20046;-61
2021/10/14 08:50:05;;;;;;;11.18;5.28;;;;;;;12.22;66.20;97717.94;4995617;28;20207;-60
2021/10/14 08:52:30;;;;;;;8.52;5.70;;;;;;;9.61;73.13;97720.34;4998409;28;20145;-61
2021/10/14 08:54:56;;;;;;;8.93;5.97;;;;;;;9.46;76.34;97724.50;5002559;28;20604;-61
2021/10/14 08:57:22;;;;;;;8.88;5.28;;;;;;;10.47;76.18;97720.63;4987233;28;20543;-62
2021/10/14 08:59:47;;;;;;;9.50;5.43;;;;;;;12.00;67.96;97711.88;4991614;28;20194;-61
2021/10/14 09:02:15;;;;;;;10.45;5.00;;;;;;;13.11;61.22;97713.84;4985730;28;20129;-62
2021/10/14 09:04:53;;;;;;;8.63;4.70;;;;;;;14.88;55.40;97710.53;4994003;28;20058;-62
2021/10/14 09:07:22;;;;;;;8.27;4.80;;;;;;;13.94;56.70;97716.38;4990889;28;20084;-62
2021/10/14 09:09:49;;;;;;;8.55;4.85;;;;;;;14.70;55.27;97713.03;4964326;28;20107;-61
2021/10/14 09:12:16;;;;;;;7.50;4.88;;;;;;;15.27;54.57;97709.53;4990588;28;20063;-62
2021/10/14 09:14:53;;;;;;;6.82;5.13;;;;;;;12.73;60.55;97714.50;4993688;28;20479;-62
2021/10/14 09:17:19;;;;;;;11.43;4.85;;;;;;;11.83;64.03;97717.69;4986624;28;20042;-62
2021/10/14 09:19:44;;;;;;;9.10;4.95;;;;;;;10.79;67.81;97725.56;4992191;28;20042;-62
2021/10/14 09:22:09;;;;;;;6.85;4.63;;;;;;;12.90;62.87;97727.88;4986878;28;20097;-64
2021/10/14 09:24:37;;;;;;;8.70;4.50;;;;;;;14.89;54.63;97711.34;4993941;28;20050;-63
2021/10/14 09:27:10;;;;;;;7.57;4.15;;;;;;;13.61;58.97;97713.34;4992299;28;20056;-61
2021/10/14 09:29:38;;;;;;;8.90;5.18;;;;;;;13.69;57.00;97699.38;4989966;28;20041;-61
2021/10/14 09:32:18;;;;;;;7.25;4.57;;;;;;;13.68;57.76;97710.72;4988920;28;20051;-60
2021/10/14 09:34:49;;;;;;;12.65;5.63;;;;;;;14.21;55.38;97704.69;4994766;28;20047;-62
2021/10/14 09:37:15;;;;;;;6.93;4.93;;;;;;;14.75;54.88;97692.63;4989239;28;20129;-61
2021/10/14 09:40:04;;;;;;;8.32;5.07;;;;;;;13.18;57.90;97692.00;4995361;28;20042;-62
2021/10/14 09:42:43;;;;;;;7.55;4.75;;;;;;;13.30;58.29;97693.81;4997102;28;20050;-64
2021/10/14 09:45:18;;;;;;;6.88;4.43;;;;;;;11.65;64.20;97698.75;4990259;28;20056;-61
2021/10/14 09:48:03;;;;;;;6.07;4.32;;;;;;;11.97;65.46;97692.56;4997537;28;20045;-62
2021/10/14 09:50:30;;;;;;;6.93;4.95;;;;;;;13.66;58.71;97686.31;4993406;28;20050;-60
2021/10/14 09:52:58;;;;;;;6.57;4.60;;;;;;;14.32;56.66;97680.84;4989914;28;20062;-63
2021/10/14 09:55:25;;;;;;;6.38;4.90;;;;;;;14.72;54.04;97688.63;4986319;28;20046;-62
2021/10/14 09:57:50;;;;;;;5.80;3.75;;;;;;;14.89;53.41;97686.50;4993254;28;20042;-63
2021/10/14 10:00:16;;;;;;;8.93;4.32;;;;;;;15.30;52.83;97678.41;4986167;28;20044;-62
2021/10/14 10:02:43;;;;;;;8.45;4.43;;;;;;;13.73;55.08;97689.22;4993583;28;20046;-65
2021/10/14 10:05:09;;;;;;;7.95;4.88;;;;;;;14.69;53.50;97677.53;4988927;28;20046;-63
2021/10/14 10:07:38;;;;;;;6.13;4.07;;;;;;;15.51;51.32;97680.69;4998788;28;20442;-62
2021/10/14 10:10:05;;;;;;;5.95;4.28;;;;;;;16.31;49.54;97682.34;5007897;28;20057;-61
2021/10/14 10:12:31;;;;;;;8.45;4.60;;;;;;;15.21;51.63;97677.91;5010970;28;20046;-59
2021/10/14 10:14:56;;;;;;;7.68;4.20;;;;;;;14.33;57.38;97669.47;5000145;28;20077;-61
2021/10/14 10:17:38;;;;;;;8.93;4.18;;;;;;;14.90;53.57;97679.84;4993490;28;20092;-61
2021/10/14 10:20:05;;;;;;;7.88;4.07;;;;;;;15.09;55.65;97674.22;4998955;28;20069;-61
2021/10/14 10:22:33;;;;;;;6.55;4.60;;;;;;;14.45;55.79;97676.75;4998323;28;20070;-60
2021/10/14 10:25:24;;;;;;;6.88;4.32;;;;;;;14.69;57.27;97678.34;4989957;28;20038;-63
2021/10/14 10:27:51;;;;;;;7.72;4.93;;;;;;;16.00;51.91;97679.69;4992882;28;20134;-61
2021/10/14 10:30:29;;;;;;;5.45;3.30;;;;;;;16.40;50.12;97678.13;4982785;28;20038;-58
2021/10/14 10:32:55;;;;;;;5.80;3.65;;;;;;;17.46;46.48;97675.69;4991814;28;20052;-59
2021/10/14 10:35:39;;;;;;;6.18;3.63;;;;;;;16.89;47.77;97659.56;4986921;28;20035;-60
2021/10/14 10:38:17;;;;;;;9.00;4.00;;;;;;;16.96;47.77;97664.31;4985886;28;20046;-59
2021/10/14 10:40:45;;;;;;;7.32;4.45;;;;;;;16.96;47.33;97665.13;4976563;28;20045;-61
2021/10/14 10:43:28;;;;;;;5.35;3.55;;;;;;;17.72;47.24;97662.75;4990488;28;20038;-59
2021/10/14 10:46:03;;;;;;;7.15;4.50;;;;;;;17.86;45.93;97650.91;4992748;28;20050;-61
2021/10/14 10:48:40;;;;;;;7.97;4.50;;;;;;;17.56;47.30;97652.78;4970758;28;20038;-62
2021/10/14 10:51:07;;;;;;;7.28;4.32;;;;;;;17.24;46.86;97644.31;4984513;28;20124;-61
2021/10/14 10:53:44;;;;;;;5.30;3.97;;;;;;;16.02;50.40;97646.94;4995085;28;20045;-61
2021/10/14 10:56:40;;;;;;;9.52;5.50;;;;;;;15.78;51.18;97639.19;4984658;28;20041;-62
2021/10/14 10:59:06;;;;;;;9.80;5.22;;;;;;;15.94;52.15;97638.97;4974362;28;20431;-61
2021/10/14 11:01:31;;;;;;;7.38;4.18;;;;;;;15.45;52.79;97636.03;4990881;28;20161;-61
2021/10/14 11:04:02;;;;;;;6.47;3.83;;;;;;;15.71;52.12;97630.81;4976203;28;20129;-61
2021/10/14 11:06:33;;;;;;;6.10;3.85;;;;;;;16.18;50.62;97627.34;4969559;28;20543;-61
2021/10/14 11:09:07;;;;;;;6.20;4.07;;;;;;;14.86;55.61;97626.59;4993627;28;20129;-61
2021/10/14 11:11:34;;;;;;;6.65;4.65;;;;;;;15.16;53.15;97621.09;4989643;28;20186;-61
2021/10/14 11:14:00;;;;;;;6.38;4.53;;;;;;;15.35;53.04;97622.91;4990200;28;20057;-61
2021/10/14 11:16:27;;;;;;;7.47;4.93;;;;;;;15.18;52.96;97617.94;4990297;28;20458;-63
2021/10/14 11:18:58;;;;;;;7.57;3.90;;;;;;;15.13;53.37;97605.28;4991404;28;20560;-62
2021/10/14 11:21:26;;;;;;;6.32;4.50;;;;;;;15.73;53.37;97609.13;4982912;28;20624;-61
2021/10/14 11:23:56;;;;;;;8.13;4.70;;;;;;;16.25;52.06;97601.75;4997069;28;20046;-62
2021/10/14 11:26:37;;;;;;;9.90;4.55;;;;;;;15.96;52.21;97607.03;4988935;28;20069;-61
2021/10/14 11:29:16;;;;;;;8.00;4.20;;;;;;;16.29;51.72;97587.97;4998862;28;20042;-60
2021/10/14 11:31:46;;;;;;;6.07;4.10;;;;;;;16.44;50.92;97590.44;4997714;28;20072;-61